Time;durP1;ratioP1;P1;durP2;ratioP2;P2;SDS_P1;SDS_P2;PMS_P1;PMS_P2;Temp;Humidity;BMP_temperature;BMP_pressure;BME280_temperature;BME280_humidity;BME280_pressure;Samples;Min_cycle;Max_cycle;Signal;HPM_P1;HPM_P2
2022/04/23 00:00:23;;;;;;;13.85;10.98;;;;;;;;;;5087975;28;20101;-77
2022/04/23 00:02:49;;;;;;;13.68;10.48;;;;;;;;;;5090046;28;20047;-77
2022/04/23 00:05:15;;;;;;;13.93;11.18;;;;;;;;;;5089879;28;20075;-77
2022/04/23 00:07:41;;;;;;;17.48;11.40;;;;;;;;;;5090391;28;20048;-76
2022/04/23 00:10:08;;;;;;;14.25;10.27;;;;;;;;;;5090046;28;20044;-76
2022/04/23 00:12:35;;;;;;;14.07;10.45;;;;;;;;;;5089633;28;20091;-77
2022/04/23 00:15:01;;;;;;;15.38;10.27;;;;;;;;;;5089981;28;20384;-76
2022/04/23 00:17:28;;;;;;;15.20;10.57;;;;;;;;;;5089781;28;20474;-76
2022/04/23 00:19:54;;;;;;;14.43;9.55;;;;;;;;;;5072674;28;20036;-76
2022/04/23 00:22:20;;;;;;;14.88;10.68;;;;;;;;;;5089751;28;20040;-76
2022/04/23 00:24:46;;;;;;;14.55;9.98;;;;;;;;;;5074907;28;20403;-76
2022/04/23 00:27:12;;;;;;;15.90;10.02;;;;;;;;;;5084455;28;20040;-76
2022/04/23 00:29:39;;;;;;;14.70;10.00;;;;;;;;;;5087378;28;20039;-76
2022/04/23 00:32:06;;;;;;;15.02;10.07;;;;;;;;;;5091247;28;20443;-77
2022/04/23 00:34:32;;;;;;;15.45;9.75;;;;;;;;;;5090966;28;20055;-76
2022/04/23 00:36:59;;;;;;;15.40;10.57;;;;;;;;;;5074603;28;20047;-76
2022/04/23 00:39:25;;;;;;;14.95;11.23;;;;;;;;;;5090939;28;20048;-76
2022/04/23 00:41:52;;;;;;;13.25;10.20;;;;;;;;;;5091047;28;20375;-76
2022/04/23 00:44:19;;;;;;;13.63;9.48;;;;;;;;;;5091200;28;20674;-76
2022/04/23 00:46:45;;;;;;;14.70;11.02;;;;;;;;;;5090724;28;20047;-76
2022/04/23 00:49:13;;;;;;;13.77;10.02;;;;;;;;;;5090748;28;20123;-76
2022/04/23 00:51:42;;;;;;;14.75;10.40;;;;;;;;;;5091014;28;20380;-76
2022/04/23 00:54:09;;;;;;;14.85;11.20;;;;;;;;;;5090625;28;20093;-77
2022/04/23 00:56:40;;;;;;;16.00;11.10;;;;;;;;;;5090603;28;20036;-77
2022/04/23 00:59:11;;;;;;;15.00;11.02;;;;;;;;;;5090761;28;20028;-77
2022/04/23 01:01:40;;;;;;;16.13;10.55;;;;;;;;;;5057824;28;20040;-76
2022/04/23 01:04:06;;;;;;;16.85;11.15;;;;;;;;;;5073665;28;20044;-76
2022/04/23 01:06:34;;;;;;;15.50;11.43;;;;;;;;;;5090536;28;20032;-76
2022/04/23 01:09:01;;;;;;;14.38;11.25;;;;;;;;;;5090371;28;20036;-76
2022/04/23 01:11:28;;;;;;;14.43;11.82;;;;;;;;;;5073897;28;20036;-76
2022/04/23 01:13:55;;;;;;;14.65;11.63;;;;;;;;;;5090595;28;20057;-76
2022/04/23 01:16:21;;;;;;;18.40;12.10;;;;;;;;;;5090494;28;20044;-76
2022/04/23 01:18:47;;;;;;;15.80;11.98;;;;;;;;;;5090455;28;20501;-76
2022/04/23 01:21:13;;;;;;;15.75;11.30;;;;;;;;;;5073269;28;20044;-76
2022/04/23 01:23:42;;;;;;;15.63;12.45;;;;;;;;;;5090404;28;20040;-76
2022/04/23 01:26:10;;;;;;;17.65;11.77;;;;;;;;;;5090196;28;20438;-76
2022/04/23 01:28:37;;;;;;;15.32;12.05;;;;;;;;;;5089978;28;20101;-76
2022/04/23 01:31:07;;;;;;;16.33;12.38;;;;;;;;;;5073318;28;20398;-76
2022/04/23 01:33:36;;;;;;;15.90;12.60;;;;;;;;;;5089667;28;20063;-76
2022/04/23 01:36:03;;;;;;;15.95;13.30;;;;;;;;;;5089983;28;20063;-76
2022/04/23 01:38:30;;;;;;;23.27;16.33;;;;;;;;;;5072862;28;20044;-76
2022/04/23 01:40:56;;;;;;;19.05;15.18;;;;;;;;;;5090046;28;20036;-76
2022/04/23 01:43:22;;;;;;;21.92;17.45;;;;;;;;;;5089874;28;20080;-76
2022/04/23 01:45:48;;;;;;;21.23;16.67;;;;;;;;;;5077656;28;20444;-76
2022/04/23 01:48:14;;;;;;;24.35;17.08;;;;;;;;;;5085081;28;20407;-76
2022/04/23 01:50:40;;;;;;;20.95;15.88;;;;;;;;;;5088882;28;20429;-76
2022/04/23 01:53:07;;;;;;;23.63;15.35;;;;;;;;;;5080399;28;20170;-76
2022/04/23 01:55:33;;;;;;;20.00;13.88;;;;;;;;;;5079146;28;20036;-76
2022/04/23 01:57:59;;;;;;;20.10;13.35;;;;;;;;;;5084113;28;20039;-76
2022/04/23 02:00:26;;;;;;;20.00;14.55;;;;;;;;;;5083626;28;20051;-76
2022/04/23 02:02:52;;;;;;;21.85;15.25;;;;;;;;;;5086869;28;20534;-76
2022/04/23 02:05:19;;;;;;;18.10;14.27;;;;;;;;;;5088086;28;20039;-76
2022/04/23 02:07:45;;;;;;;20.33;15.07;;;;;;;;;;5089435;28;20534;-76
2022/04/23 02:10:12;;;;;;;20.73;15.05;;;;;;;;;;5066452;28;20115;-76
2022/04/23 02:12:39;;;;;;;16.60;13.15;;;;;;;;;;5089251;28;20051;-76
2022/04/23 02:15:07;;;;;;;19.90;15.10;;;;;;;;;;5086026;28;20040;-76
2022/04/23 02:17:52;;;;;;;17.23;14.25;;;;;;;;;;5075350;28;20369;-76
2022/04/23 02:20:18;;;;;;;19.80;14.10;;;;;;;;;;5077440;28;20034;-76
2022/04/23 02:22:45;;;;;;;19.67;14.57;;;;;;;;;;5072704;28;20044;-76
2022/04/23 02:25:11;;;;;;;18.75;14.05;;;;;;;;;;5087255;28;20061;-76
2022/04/23 02:27:41;;;;;;;21.25;15.00;;;;;;;;;;5084985;28;20080;-76
2022/04/23 02:30:08;;;;;;;19.88;15.30;;;;;;;;;;5072380;28;20075;-76
2022/04/23 02:32:34;;;;;;;18.58;14.52;;;;;;;;;;5089549;28;20044;-76
2022/04/23 02:35:00;;;;;;;21.15;14.70;;;;;;;;;;5071724;28;20061;-76
2022/04/23 02:37:36;;;;;;;19.33;14.30;;;;;;;;;;5092354;28;20069;-76
2022/04/23 02:40:06;;;;;;;19.10;14.35;;;;;;;;;;5092026;28;20027;-76
2022/04/23 02:42:33;;;;;;;22.00;14.63;;;;;;;;;;5072247;28;20044;-76
2022/04/23 02:45:03;;;;;;;19.55;15.13;;;;;;;;;;5079252;28;20036;-76
2022/04/23 02:47:30;;;;;;;18.42;14.02;;;;;;;;;;5089441;28;20048;-76
2022/04/23 02:49:56;;;;;;;21.13;15.50;;;;;;;;;;5086436;28;20375;-76
2022/04/23 02:52:22;;;;;;;19.50;14.73;;;;;;;;;;5091530;28;20045;-75
2022/04/23 02:54:51;;;;;;;20.90;15.25;;;;;;;;;;5091410;28;20044;-76
2022/04/23 02:57:17;;;;;;;20.73;15.18;;;;;;;;;;5092427;28;20043;-76
2022/04/23 02:59:43;;;;;;;21.10;15.48;;;;;;;;;;5091075;28;20065;-76
2022/04/23 03:02:10;;;;;;;22.70;16.30;;;;;;;;;;5082007;28;20043;-76
2022/04/23 03:04:36;;;;;;;21.63;15.63;;;;;;;;;;5089819;28;20078;-76
2022/04/23 03:07:03;;;;;;;19.42;15.15;;;;;;;;;;5074267;28;20203;-76
2022/04/23 03:09:30;;;;;;;23.23;16.08;;;;;;;;;;5073934;28;20039;-76
2022/04/23 03:11:56;;;;;;;20.55;14.20;;;;;;;;;;5079911;28;20693;-75
2022/04/23 03:14:23;;;;;;;19.35;14.55;;;;;;;;;;5091522;28;20043;-76
2022/04/23 03:16:49;;;;;;;23.10;15.82;;;;;;;;;;5088156;28;20355;-76
2022/04/23 03:19:15;;;;;;;21.92;15.05;;;;;;;;;;5096200;28;20077;-76
2022/04/23 03:21:41;;;;;;;20.88;15.63;;;;;;;;;;5083512;28;20061;-75
2022/04/23 03:24:13;;;;;;;18.65;14.40;;;;;;;;;;5096326;28;20454;-75
2022/04/23 03:26:39;;;;;;;21.55;15.38;;;;;;;;;;5095071;28;20035;-75
2022/04/23 03:29:07;;;;;;;19.08;14.77;;;;;;;;;;5079282;28;20331;-76
2022/04/23 03:31:39;;;;;;;19.48;14.43;;;;;;;;;;5090889;28;20052;-75
2022/04/23 03:34:07;;;;;;;20.88;15.05;;;;;;;;;;5095552;28;20054;-76
2022/04/23 03:36:34;;;;;;;18.98;15.15;;;;;;;;;;5093059;28;20035;-75
2022/04/23 03:39:00;;;;;;;20.15;15.32;;;;;;;;;;5095665;28;20031;-76
2022/04/23 03:41:26;;;;;;;21.58;14.95;;;;;;;;;;5085717;28;20043;-75
2022/04/23 03:43:53;;;;;;;21.20;16.38;;;;;;;;;;5095270;28;20040;-76
2022/04/23 03:46:19;;;;;;;18.40;15.30;;;;;;;;;;5083823;28;20043;-75
2022/04/23 03:48:45;;;;;;;19.38;14.00;;;;;;;;;;5095130;28;20074;-76
2022/04/23 03:51:11;;;;;;;19.23;15.55;;;;;;;;;;5092370;28;20130;-76
2022/04/23 03:53:37;;;;;;;19.40;13.88;;;;;;;;;;5094871;28;20036;-75
2022/04/23 03:56:05;;;;;;;18.73;14.52;;;;;;;;;;5093477;28;20036;-75
2022/04/23 03:58:31;;;;;;;18.67;14.45;;;;;;;;;;5095643;28;20043;-76
2022/04/23 04:00:57;;;;;;;19.40;15.05;;;;;;;;;;5093475;28;20043;-75
2022/04/23 04:03:23;;;;;;;17.02;14.45;;;;;;;;;;5092967;28;20031;-76
2022/04/23 04:05:50;;;;;;;19.17;14.52;;;;;;;;;;5073920;28;20101;-76
2022/04/23 04:08:16;;;;;;;18.70;14.77;;;;;;;;;;5093382;28;20047;-76
2022/04/23 04:10:42;;;;;;;16.98;14.27;;;;;;;;;;5092491;28;20039;-75
2022/04/23 04:13:09;;;;;;;15.80;13.63;;;;;;;;;;5094676;28;20047;-75
2022/04/23 04:15:35;;;;;;;16.95;14.55;;;;;;;;;;5083861;28;20109;-75
2022/04/23 04:18:01;;;;;;;17.33;14.63;;;;;;;;;;5083814;28;20032;-75
2022/04/23 04:20:29;;;;;;;17.92;15.43;;;;;;;;;;5085724;28;20070;-76
2022/04/23 04:22:55;;;;;;;19.55;15.60;;;;;;;;;;5089489;28;20518;-75
2022/04/23 04:25:21;;;;;;;18.08;14.75;;;;;;;;;;5092332;28;20043;-75
2022/04/23 04:27:48;;;;;;;18.13;14.85;;;;;;;;;;5094167;28;20126;-75
2022/04/23 04:30:15;;;;;;;19.35;15.07;;;;;;;;;;5094821;28;20570;-75
2022/04/23 04:32:41;;;;;;;19.02;14.80;;;;;;;;;;5093475;28;20075;-75
2022/04/23 04:35:09;;;;;;;19.35;14.38;;;;;;;;;;5106374;28;20044;-76
2022/04/23 04:37:36;;;;;;;19.15;15.65;;;;;;;;;;5094288;28;20126;-74
2022/04/23 04:40:02;;;;;;;17.85;14.13;;;;;;;;;;5094528;28;20360;-75
2022/04/23 04:42:29;;;;;;;18.77;14.60;;;;;;;;;;5094623;28;20050;-75
2022/04/23 04:44:55;;;;;;;18.17;14.32;;;;;;;;;;5094534;28;20047;-76
2022/04/23 04:47:22;;;;;;;17.77;14.20;;;;;;;;;;5093891;28;20047;-75
2022/04/23 04:49:48;;;;;;;18.58;14.95;;;;;;;;;;5092714;28;20045;-75
2022/04/23 04:52:14;;;;;;;17.80;13.98;;;;;;;;;;5082045;28;20423;-76
2022/04/23 04:54:40;;;;;;;16.92;14.85;;;;;;;;;;5094274;28;20502;-75
2022/04/23 04:57:06;;;;;;;18.00;14.18;;;;;;;;;;5090471;28;20045;-75
2022/04/23 04:59:32;;;;;;;19.40;14.95;;;;;;;;;;5093911;28;20130;-75
2022/04/23 05:02:02;;;;;;;17.88;13.73;;;;;;;;;;5092653;28;20044;-75
2022/04/23 05:04:28;;;;;;;16.80;13.93;;;;;;;;;;5074942;28;20082;-75
2022/04/23 05:06:55;;;;;;;18.02;14.38;;;;;;;;;;5091950;28;20100;-75
2022/04/23 05:09:21;;;;;;;19.02;15.15;;;;;;;;;;5091881;28;20127;-75
2022/04/23 05:11:47;;;;;;;18.90;14.65;;;;;;;;;;5091793;28;20043;-74
2022/04/23 05:14:13;;;;;;;18.25;14.35;;;;;;;;;;5091923;28;20044;-75
2022/04/23 05:16:40;;;;;;;18.15;14.38;;;;;;;;;;5092454;28;20043;-75
2022/04/23 05:19:06;;;;;;;19.10;14.90;;;;;;;;;;5091850;28;20043;-75
2022/04/23 05:21:32;;;;;;;17.70;14.70;;;;;;;;;;5092412;28;20379;-75
2022/04/23 05:23:58;;;;;;;19.10;14.15;;;;;;;;;;5091467;28;20082;-76
2022/04/23 05:26:24;;;;;;;18.88;14.88;;;;;;;;;;5091389;28;20036;-75
2022/04/23 05:28:51;;;;;;;17.83;14.10;;;;;;;;;;5092337;28;20043;-75
2022/04/23 05:31:17;;;;;;;19.05;14.60;;;;;;;;;;5092546;28;20046;-75
2022/04/23 05:33:43;;;;;;;17.13;14.38;;;;;;;;;;5075024;28;20070;-76
2022/04/23 05:36:09;;;;;;;18.63;14.77;;;;;;;;;;5092868;28;20048;-75
2022/04/23 05:38:36;;;;;;;20.02;14.43;;;;;;;;;;5077476;28;20040;-78
2022/04/23 05:41:03;;;;;;;17.73;14.60;;;;;;;;;;5085692;28;20031;-76
2022/04/23 05:43:30;;;;;;;17.88;15.13;;;;;;;;;;5091847;28;20399;-76
2022/04/23 05:46:00;;;;;;;20.38;14.43;;;;;;;;;;5096355;27;20114;-77
2022/04/23 05:48:27;;;;;;;18.40;14.48;;;;;;;;;;5094920;28;20078;-76
2022/04/23 05:50:53;;;;;;;18.17;14.90;;;;;;;;;;5099122;27;20057;-77
2022/04/23 05:53:19;;;;;;;19.27;14.18;;;;;;;;;;5101375;27;20039;-76
2022/04/23 05:55:45;;;;;;;17.27;13.38;;;;;;;;;;5079822;28;20536;-77
2022/04/23 05:58:12;;;;;;;16.73;14.18;;;;;;;;;;5099709;27;20406;-77
2022/04/23 06:00:38;;;;;;;18.55;13.95;;;;;;;;;;5100326;27;20075;-77
2022/04/23 06:03:05;;;;;;;18.30;14.40;;;;;;;;;;5099316;27;20036;-77
2022/04/23 06:05:31;;;;;;;17.92;14.55;;;;;;;;;;5098168;27;20063;-74
2022/04/23 06:07:57;;;;;;;18.65;14.40;;;;;;;;;;5097218;28;20039;-75
2022/04/23 06:10:23;;;;;;;18.10;14.80;;;;;;;;;;5098391;28;20043;-75
2022/04/23 06:12:49;;;;;;;17.98;14.50;;;;;;;;;;5080144;28;20054;-75
2022/04/23 06:15:16;;;;;;;18.17;14.38;;;;;;;;;;5090927;28;20081;-75
2022/04/23 06:17:42;;;;;;;17.35;13.70;;;;;;;;;;5090907;28;20100;-75
2022/04/23 06:20:08;;;;;;;18.05;13.55;;;;;;;;;;5090633;28;20532;-75
2022/04/23 06:22:35;;;;;;;18.50;14.88;;;;;;;;;;5091132;28;20406;-74
2022/04/23 06:25:01;;;;;;;18.30;14.43;;;;;;;;;;5090601;28;20364;-74
2022/04/23 06:27:28;;;;;;;18.35;14.60;;;;;;;;;;5090811;28;20036;-75
2022/04/23 06:29:54;;;;;;;18.13;14.85;;;;;;;;;;5089485;28;20104;-75
2022/04/23 06:32:20;;;;;;;17.85;14.95;;;;;;;;;;5077703;28;20062;-75
2022/04/23 06:34:46;;;;;;;21.25;15.02;;;;;;;;;;5090221;28;20051;-75
2022/04/23 06:37:13;;;;;;;17.90;14.25;;;;;;;;;;5090691;28;20529;-75
2022/04/23 06:39:39;;;;;;;20.33;13.93;;;;;;;;;;5090211;28;20039;-75
2022/04/23 06:42:06;;;;;;;16.65;14.10;;;;;;;;;;5089924;28;20042;-75
2022/04/23 06:44:32;;;;;;;20.05;14.93;;;;;;;;;;5073540;28;20386;-75
2022/04/23 06:46:58;;;;;;;19.00;14.95;;;;;;;;;;5090584;28;20513;-75
2022/04/23 06:49:27;;;;;;;17.33;14.07;;;;;;;;;;5090230;28;20633;-75
2022/04/23 06:51:55;;;;;;;18.17;13.98;;;;;;;;;;5102436;27;20047;-75
2022/04/23 06:54:21;;;;;;;17.55;14.32;;;;;;;;;;5077147;28;20032;-75
2022/04/23 06:56:47;;;;;;;19.27;14.35;;;;;;;;;;5099814;28;20067;-75
2022/04/23 06:59:13;;;;;;;18.30;14.48;;;;;;;;;;5091706;28;20043;-75
2022/04/23 07:01:43;;;;;;;18.13;13.73;;;;;;;;;;5101682;27;20070;-75
2022/04/23 07:04:09;;;;;;;16.35;13.82;;;;;;;;;;5104813;27;20042;-75
2022/04/23 07:06:36;;;;;;;18.38;14.88;;;;;;;;;;5094207;28;20514;-75
2022/04/23 07:09:04;;;;;;;19.35;13.70;;;;;;;;;;5094303;28;20039;-75
2022/04/23 07:11:30;;;;;;;20.40;13.75;;;;;;;;;;5094105;28;20256;-75
2022/04/23 07:13:56;;;;;;;18.02;14.52;;;;;;;;;;5093484;28;20628;-75
2022/04/23 07:16:22;;;;;;;16.83;14.00;;;;;;;;;;5077337;28;20032;-74
2022/04/23 07:18:52;;;;;;;16.65;13.98;;;;;;;;;;5094467;28;20069;-75
2022/04/23 07:21:18;;;;;;;16.60;13.93;;;;;;;;;;5093873;28;20091;-75
2022/04/23 07:24:03;;;;;;;18.08;13.75;;;;;;;;;;5093133;28;20078;-75
2022/04/23 07:26:29;;;;;;;18.10;14.95;;;;;;;;;;5089226;28;20050;-75
2022/04/23 07:28:55;;;;;;;17.33;13.63;;;;;;;;;;5093737;28;20047;-75
2022/04/23 07:31:22;;;;;;;17.23;13.07;;;;;;;;;;5093499;28;20043;-75
2022/04/23 07:39:18;;;;;;;15.70;13.13;;;;;;;;;;5092781;28;20529;-76
2022/04/23 07:41:44;;;;;;;17.05;13.27;;;;;;;;;;5093646;28;20379;-75
2022/04/23 07:44:10;;;;;;;16.92;14.57;;;;;;;;;;5093450;28;20050;-76
2022/04/23 07:46:37;;;;;;;15.82;12.60;;;;;;;;;;5093125;28;20041;-77
2022/04/23 07:49:03;;;;;;;16.85;13.32;;;;;;;;;;5090969;28;20044;-76
2022/04/23 07:51:29;;;;;;;14.40;12.90;;;;;;;;;;5085300;28;20232;-75
2022/04/23 07:53:56;;;;;;;15.52;13.10;;;;;;;;;;5093210;28;20071;-76
2022/04/23 07:56:22;;;;;;;14.95;12.88;;;;;;;;;;5093909;28;20046;-76
2022/04/23 07:58:48;;;;;;;17.15;13.15;;;;;;;;;;5093599;28;20035;-75
2022/04/23 08:01:15;;;;;;;15.02;12.82;;;;;;;;;;5076367;28;20036;-76
2022/04/23 08:03:41;;;;;;;20.13;12.45;;;;;;;;;;5092599;28;20084;-76
2022/04/23 08:06:10;;;;;;;14.77;11.57;;;;;;;;;;5076805;28;20047;-76
2022/04/23 08:08:36;;;;;;;16.63;13.00;;;;;;;;;;5093304;28;20132;-75
2022/04/23 08:11:02;;;;;;;15.13;12.15;;;;;;;;;;5093279;28;20556;-76
2022/04/23 08:13:28;;;;;;;18.23;13.07;;;;;;;;;;5090070;28;20058;-75
2022/04/23 08:15:55;;;;;;;14.23;12.20;;;;;;;;;;5093184;28;20503;-76
2022/04/23 08:18:21;;;;;;;14.48;11.30;;;;;;;;;;5092411;28;20031;-76
2022/04/23 08:20:47;;;;;;;13.60;11.52;;;;;;;;;;5092553;28;20035;-77
2022/04/23 08:23:15;;;;;;;14.90;12.10;;;;;;;;;;5093116;28;20039;-75
2022/04/23 08:25:41;;;;;;;14.65;12.02;;;;;;;;;;5127104;27;20442;-75
2022/04/23 08:30:52;;;;;;;18.00;12.32;;;;;;;;;;5089954;28;20044;-75
2022/04/23 08:33:18;;;;;;;15.32;12.43;;;;;;;;;;5092194;28;20402;-76
2022/04/23 08:35:44;;;;;;;15.75;11.90;;;;;;;;;;5076106;28;20047;-75
2022/04/23 08:38:10;;;;;;;18.40;12.65;;;;;;;;;;5075913;28;20035;-76
2022/04/23 08:40:41;;;;;;;15.07;11.98;;;;;;;;;;5076282;28;20445;-75
2022/04/23 08:43:08;;;;;;;14.68;12.25;;;;;;;;;;5092629;28;20044;-76
2022/04/23 08:45:37;;;;;;;15.55;12.80;;;;;;;;;;5075623;28;20411;-75
2022/04/23 08:48:11;;;;;;;16.98;12.70;;;;;;;;;;5075624;28;20043;-77
2022/04/23 08:50:38;;;;;;;16.65;12.95;;;;;;;;;;5086059;28;20507;-76
2022/04/23 08:53:18;;;;;;;16.35;12.25;;;;;;;;;;5088931;28;20127;-77
2022/04/23 08:55:46;;;;;;;14.68;12.40;;;;;;;;;;5077539;28;20044;-76
2022/04/23 08:58:13;;;;;;;15.35;12.18;;;;;;;;;;5092423;28;20040;-75
2022/04/23 09:00:39;;;;;;;14.52;12.10;;;;;;;;;;5091719;28;20040;-76
2022/04/23 09:03:05;;;;;;;14.80;12.18;;;;;;;;;;5091779;28;20394;-76
2022/04/23 09:05:32;;;;;;;14.43;11.82;;;;;;;;;;5091257;28;20042;-75
2022/04/23 09:07:58;;;;;;;14.45;11.75;;;;;;;;;;5092203;28;20376;-76
2022/04/23 09:10:46;;;;;;;15.77;12.20;;;;;;;;;;5088578;28;20035;-76
2022/04/23 09:13:24;;;;;;;13.90;11.65;;;;;;;;;;5091521;28;20051;-76
2022/04/23 09:24:16;;;;;;;13.25;11.52;;;;;;;;;;5085013;28;20126;-77
2022/04/23 09:26:43;;;;;;;17.70;12.40;;;;;;;;;;5091627;28;20266;-78
2022/04/23 09:29:17;;;;;;;13.85;12.18;;;;;;;;;;5091843;28;20044;-76
2022/04/23 09:31:44;;;;;;;14.60;12.23;;;;;;;;;;5091881;28;20043;-75
2022/04/23 09:34:18;;;;;;;13.82;12.32;;;;;;;;;;5072879;28;20101;-75
2022/04/23 09:36:55;;;;;;;15.57;12.80;;;;;;;;;;5091937;28;20039;-74
2022/04/23 09:39:31;;;;;;;14.45;12.55;;;;;;;;;;5091281;28;20039;-75
2022/04/23 09:42:17;;;;;;;15.00;12.10;;;;;;;;;;5074449;28;20035;-76
2022/04/23 09:44:44;;;;;;;14.20;12.32;;;;;;;;;;5091203;28;20043;-76
2022/04/23 09:47:10;;;;;;;15.80;12.32;;;;;;;;;;5091223;28;20044;-76
2022/04/23 09:49:38;;;;;;;15.23;12.23;;;;;;;;;;5091600;28;20067;-77
2022/04/23 09:52:11;;;;;;;14.32;12.10;;;;;;;;;;5073256;28;20063;-77
2022/04/23 09:54:39;;;;;;;13.82;12.32;;;;;;;;;;5075180;28;20085;-76
2022/04/23 09:57:05;;;;;;;13.32;11.32;;;;;;;;;;5083889;28;20461;-76
2022/04/23 09:59:32;;;;;;;12.40;10.63;;;;;;;;;;5083049;28;20070;-77
2022/04/23 10:01:58;;;;;;;13.73;10.77;;;;;;;;;;5090952;28;20078;-75
2022/04/23 10:04:31;;;;;;;13.98;11.35;;;;;;;;;;5091044;28;20040;-76
2022/04/23 10:07:01;;;;;;;14.15;10.48;;;;;;;;;;5091141;28;20039;-76
2022/04/23 10:09:28;;;;;;;14.20;10.48;;;;;;;;;;5091242;28;20040;-76
2022/04/23 10:12:06;;;;;;;13.68;10.68;;;;;;;;;;5091067;28;20570;-76
2022/04/23 10:14:42;;;;;;;14.43;12.30;;;;;;;;;;5091069;28;20089;-76
2022/04/23 10:17:14;;;;;;;15.23;12.10;;;;;;;;;;5090643;28;20168;-76
2022/04/23 10:19:41;;;;;;;12.82;11.13;;;;;;;;;;5090779;28;20049;-77
2022/04/23 10:22:31;;;;;;;14.65;10.85;;;;;;;;;;5074538;28;20079;-77
2022/04/23 10:25:17;;;;;;;14.02;10.70;;;;;;;;;;5090841;28;20510;-77
2022/04/23 10:27:45;;;;;;;14.15;11.50;;;;;;;;;;5090447;28;20164;-78
2022/04/23 10:30:12;;;;;;;14.85;11.63;;;;;;;;;;5086966;28;20402;-78
2022/04/23 10:32:42;;;;;;;12.20;10.88;;;;;;;;;;5079622;28;20672;-77
2022/04/23 10:35:17;;;;;;;12.25;10.95;;;;;;;;;;5073950;28;20340;-78
2022/04/23 10:37:43;;;;;;;14.23;10.98;;;;;;;;;;5090554;28;20537;-76
2022/04/23 10:40:10;;;;;;;15.02;12.60;;;;;;;;;;5083741;28;20036;-78
2022/04/23 10:42:38;;;;;;;13.63;11.18;;;;;;;;;;5080974;28;20164;-76
2022/04/23 10:45:06;;;;;;;12.38;10.40;;;;;;;;;;5090851;28;20528;-78
2022/04/23 10:47:34;;;;;;;14.48;11.40;;;;;;;;;;5090245;28;20044;-77
2022/04/23 10:50:13;;;;;;;13.45;11.10;;;;;;;;;;5087106;28;20160;-77
2022/04/23 10:52:39;;;;;;;16.33;11.55;;;;;;;;;;5066596;28;20701;-78
2022/04/23 10:55:06;;;;;;;12.57;11.25;;;;;;;;;;5090785;28;20043;-76
2022/04/23 10:57:34;;;;;;;12.25;10.30;;;;;;;;;;5090353;28;20043;-77
2022/04/23 11:00:17;;;;;;;13.77;10.18;;;;;;;;;;5087410;28;20036;-76
2022/04/23 11:02:46;;;;;;;13.57;10.80;;;;;;;;;;5084786;28;20051;-78
2022/04/23 11:13:50;;;;;;;14.73;10.80;;;;;;;;;;5090156;28;20097;-78
2022/04/23 11:16:17;;;;;;;13.40;10.32;;;;;;;;;;5090264;28;20159;-77
2022/04/23 11:18:50;;;;;;;14.70;10.30;;;;;;;;;;5090603;28;20587;-78
2022/04/23 11:21:17;;;;;;;14.20;10.32;;;;;;;;;;5086561;28;20071;-77
2022/04/23 11:23:45;;;;;;;14.63;10.82;;;;;;;;;;5090299;28;20046;-78
2022/04/23 11:26:17;;;;;;;12.77;9.93;;;;;;;;;;5090404;28;20426;-77
2022/04/23 11:28:43;;;;;;;15.55;10.63;;;;;;;;;;5090335;28;20498;-77
2022/04/23 11:31:14;;;;;;;12.10;9.60;;;;;;;;;;5082948;28;20039;-76
2022/04/23 11:33:50;;;;;;;12.50;10.18;;;;;;;;;;5080169;28;20044;-77
2022/04/23 11:36:17;;;;;;;12.38;10.35;;;;;;;;;;5090824;28;20597;-77
2022/04/23 11:38:44;;;;;;;11.25;9.15;;;;;;;;;;5092503;28;20040;-78
2022/04/23 11:41:11;;;;;;;12.73;10.15;;;;;;;;;;5091439;28;20448;-77
2022/04/23 11:43:40;;;;;;;12.63;10.02;;;;;;;;;;5094068;28;20547;-77
2022/04/23 11:46:07;;;;;;;12.68;10.57;;;;;;;;;;5093584;28;20046;-77
2022/04/23 11:48:44;;;;;;;11.88;10.27;;;;;;;;;;5093478;28;20047;-77
2022/04/23 11:51:13;;;;;;;14.38;10.93;;;;;;;;;;5090495;28;20540;-77
2022/04/23 11:54:06;;;;;;;11.95;9.52;;;;;;;;;;5093496;28;20046;-77
2022/04/23 11:56:33;;;;;;;10.52;9.43;;;;;;;;;;5090711;28;20039;-78
2022/04/23 11:59:00;;;;;;;11.57;10.38;;;;;;;;;;5093401;28;20040;-77
2022/04/23 12:01:27;;;;;;;11.00;9.80;;;;;;;;;;5090339;28;20065;-78
2022/04/23 12:03:54;;;;;;;11.52;9.75;;;;;;;;;;5093884;28;20050;-76
2022/04/23 12:06:24;;;;;;;15.73;10.02;;;;;;;;;;5092868;28;20043;-76
2022/04/23 12:08:50;;;;;;;11.32;9.15;;;;;;;;;;5076933;28;20475;-77
2022/04/23 12:11:19;;;;;;;14.85;9.57;;;;;;;;;;5081141;28;20644;-77
2022/04/23 12:13:49;;;;;;;12.60;9.77;;;;;;;;;;5089311;28;20075;-77
2022/04/23 12:16:47;;;;;;;11.25;8.90;;;;;;;;;;5093097;28;20109;-77
2022/04/23 12:19:14;;;;;;;13.23;9.30;;;;;;;;;;5039503;28;20127;-77
2022/04/23 12:21:55;;;;;;;12.02;9.32;;;;;;;;;;5071537;28;20036;-77
2022/04/23 12:24:34;;;;;;;10.88;9.35;;;;;;;;;;5093070;28;20043;-78
2022/04/23 12:27:02;;;;;;;12.25;9.60;;;;;;;;;;5093181;28;20487;-77
2022/04/23 12:40:45;;;;;;;12.00;8.50;;;;;;;;;;5089397;28;20043;-78
2022/04/23 12:43:28;;;;;;;10.45;7.90;;;;;;;;;;5092736;28;20044;-79
2022/04/23 12:46:05;;;;;;;11.90;8.63;;;;;;;;;;5078127;28;20621;-78
2022/04/23 12:48:32;;;;;;;10.45;8.90;;;;;;;;;;5092140;28;20057;-78
2022/04/23 12:51:06;;;;;;;10.52;8.48;;;;;;;;;;5090089;28;20051;-78
2022/04/23 12:53:36;;;;;;;10.63;8.30;;;;;;;;;;5092799;28;20044;-79
2022/04/23 12:56:05;;;;;;;12.65;8.07;;;;;;;;;;5092524;28;20122;-77
2022/04/23 12:58:31;;;;;;;8.95;7.57;;;;;;;;;;5088350;28;20339;-77
2022/04/23 13:00:58;;;;;;;8.80;7.90;;;;;;;;;;5089155;28;20040;-78
2022/04/23 13:03:34;;;;;;;12.30;7.88;;;;;;;;;;5092347;28;20040;-78
2022/04/23 13:06:00;;;;;;;9.82;7.10;;;;;;;;;;5091986;28;20520;-79
2022/04/23 13:11:30;;;;;;;9.55;7.50;;;;;;;;;;5088529;28;20048;-80
2022/04/23 13:14:00;;;;;;;8.85;7.07;;;;;;;;;;5091839;28;20115;-80
2022/04/23 13:16:30;;;;;;;9.05;6.95;;;;;;;;;;5091851;28;20123;-79
2022/04/23 13:18:57;;;;;;;11.98;7.57;;;;;;;;;;5091703;28;20352;-80
2022/04/23 13:21:24;;;;;;;11.23;7.50;;;;;;;;;;5089460;28;20134;-80
2022/04/23 13:23:52;;;;;;;12.10;8.35;;;;;;;;;;5092134;28;20044;-79
2022/04/23 13:26:18;;;;;;;10.63;7.57;;;;;;;;;;5078784;28;20552;-80
2022/04/23 13:28:45;;;;;;;10.05;7.60;;;;;;;;;;5090082;28;20047;-81
2022/04/23 13:31:11;;;;;;;9.70;6.75;;;;;;;;;;5069437;28;20047;-79
2022/04/23 13:33:37;;;;;;;10.18;6.30;;;;;;;;;;5091402;28;20388;-78
2022/04/23 13:36:04;;;;;;;9.07;6.82;;;;;;;;;;5069587;28;20047;-78
2022/04/23 13:38:30;;;;;;;9.55;6.63;;;;;;;;;;5092021;28;20035;-77
2022/04/23 13:40:57;;;;;;;8.40;6.78;;;;;;;;;;5088321;28;20425;-78
2022/04/23 13:43:23;;;;;;;8.40;6.18;;;;;;;;;;5074367;28;20046;-78
2022/04/23 13:45:50;;;;;;;7.78;6.15;;;;;;;;;;5073173;28;20046;-79
2022/04/23 13:48:18;;;;;;;7.93;5.50;;;;;;;;;;5091385;28;20047;-79
2022/04/23 13:50:44;;;;;;;8.73;6.10;;;;;;;;;;5087904;28;20398;-78
2022/04/23 13:53:11;;;;;;;8.85;6.28;;;;;;;;;;5088216;28;20040;-77
2022/04/23 13:55:37;;;;;;;8.15;5.97;;;;;;;;;;5087751;28;20134;-76
2022/04/23 13:58:04;;;;;;;8.50;7.43;;;;;;;;;;5089379;28;20092;-77
2022/04/23 14:00:30;;;;;;;9.05;6.05;;;;;;;;;;5087885;28;20482;-77
2022/04/23 14:11:20;;;;;;;7.60;5.30;;;;;;;;;;5079809;28;20515;-78
2022/04/23 14:13:46;;;;;;;7.95;5.35;;;;;;;;;;5085064;28;20065;-77
2022/04/23 14:16:13;;;;;;;7.50;5.50;;;;;;;;;;5085070;28;20044;-78
2022/04/23 14:18:39;;;;;;;9.23;5.82;;;;;;;;;;5090948;28;20039;-77
2022/04/23 14:21:07;;;;;;;9.32;5.47;;;;;;;;;;5081142;28;20071;-78
2022/04/23 14:23:33;;;;;;;9.02;6.15;;;;;;;;;;5090652;28;20043;-77
2022/04/23 14:25:59;;;;;;;9.15;6.10;;;;;;;;;;5072540;28;20124;-78
2022/04/23 14:28:25;;;;;;;7.88;5.10;;;;;;;;;;5090540;28;20092;-78
2022/04/23 14:30:52;;;;;;;9.77;5.57;;;;;;;;;;5081091;28;20090;-77
2022/04/23 14:33:44;;;;;;;7.85;5.30;;;;;;;;;;5082752;28;20048;-77
2022/04/23 14:36:10;;;;;;;10.38;6.22;;;;;;;;;;5083980;28;20040;-78
2022/04/23 14:38:38;;;;;;;8.95;6.03;;;;;;;;;;5087683;28;20478;-78
2022/04/23 14:41:05;;;;;;;8.70;5.65;;;;;;;;;;5085742;28;20047;-78
2022/04/23 14:43:31;;;;;;;7.70;5.43;;;;;;;;;;5087263;28;20040;-79
2022/04/23 14:45:57;;;;;;;9.02;5.25;;;;;;;;;;5081379;28;20071;-77
2022/04/23 14:48:27;;;;;;;8.57;5.50;;;;;;;;;;5087033;28;20239;-78
2022/04/23 14:53:43;;;;;;;6.85;5.53;;;;;;;;;;5062190;28;20048;-78
2022/04/23 14:56:10;;;;;;;10.43;5.80;;;;;;;;;;5084100;28;20130;-78
2022/04/23 14:58:36;;;;;;;7.70;4.93;;;;;;;;;;5087156;28;20086;-78
2022/04/23 15:01:02;;;;;;;9.32;5.55;;;;;;;;;;5083645;28;20036;-77
2022/04/23 15:03:28;;;;;;;9.27;5.95;;;;;;;;;;5086903;28;20053;-78
2022/04/23 15:05:55;;;;;;;7.45;5.35;;;;;;;;;;5084640;28;20462;-78
2022/04/23 15:08:21;;;;;;;7.68;5.30;;;;;;;;;;5070060;28;20032;-79
2022/04/23 15:10:47;;;;;;;8.73;5.45;;;;;;;;;;5083329;28;20046;-78
2022/04/23 15:13:14;;;;;;;8.15;5.15;;;;;;;;;;5090306;28;20495;-79
2022/04/23 15:15:40;;;;;;;9.88;5.15;;;;;;;;;;5086021;28;20067;-78